Hlavní strana
METAR-TAF:

METAR-TAF

Letiště :

Erwin, Severní Karolína, Spojené státy americké

zeměpisná šířka: 35-22-43N, zeměpisná délka: 078-44-01W, výška: 60 m

Aktuální stav počasí

Zpráva byla vytvořena před 22 minutami, v 02:15 UTC
Jihojihovýchodní vítr 5 kt
Teplota 22°C
Vlhkost vzduchu 100%
Tlak 1017 hPa
Viditelnost: 16.1 km
Oblačno až skoro zataženo ve výšce 500 ft
Oblačno až skoro zataženo ve výšce 12000 ft

METAR: KHRJ 300215Z AUTO 16005KT 10SM BKN005 BKN120 22/22 A3004 RMK AO2 T02180218

Čas: 22:37 (02:37 UTC)


TAF: chybějící

Stav a předpovědi počasí z více než 4 000 letišť (zprávy METAR a TAF).

Červené a žluté tečky na mapě představují dostupné meteorologické stanice.

Když kurzor umístíte na tečku, zobrazí se název stanice.

Pak kliknutím zobrazíte stav a předpověď počasí.

Chcete-li změnit mapu, kliknutím na zelené tlačítko se znaménkem +mapu přiblížíte, kliknutím na zelené tlačítko se znaménkem – mapu oddálíte a kliknutím na zelené šipky přejdete na sousední mapy.


METAR-TAF: